createdAt,value
2018-06-22T00:01:33.636Z,15.20
2018-06-22T00:04:01.308Z,15.20
2018-06-22T00:06:29.272Z,15.20
2018-06-22T00:08:56.918Z,15.20
2018-06-22T00:11:24.965Z,15.10
2018-06-22T00:13:52.542Z,15.10
2018-06-22T00:16:20.173Z,15.10
2018-06-22T00:18:48.071Z,15.00
2018-06-22T00:21:15.732Z,15.00
2018-06-22T00:23:43.794Z,15.00
2018-06-22T00:26:11.387Z,15.00
2018-06-22T00:31:06.704Z,14.90
2018-06-22T00:33:34.290Z,14.90
2018-06-22T00:36:01.853Z,14.90
2018-06-22T00:38:29.439Z,14.90
2018-06-22T00:40:57.158Z,14.90
2018-06-22T00:43:24.767Z,14.90
2018-06-22T00:48:20.063Z,14.80
2018-06-22T00:50:47.708Z,14.80
2018-06-22T00:53:33.164Z,14.80
2018-06-22T00:56:00.761Z,14.70
2018-06-22T00:58:28.372Z,14.80
2018-06-22T01:00:56.176Z,14.70
2018-06-22T01:03:23.781Z,14.70
2018-06-22T01:05:51.389Z,14.60
2018-06-22T01:08:18.935Z,14.60
2018-06-22T01:10:46.491Z,14.60
2018-06-22T01:13:14.067Z,14.60
2018-06-22T01:15:41.672Z,14.60
2018-06-22T01:18:09.275Z,14.60
2018-06-22T01:20:37.168Z,14.60
2018-06-22T01:23:05.194Z,14.60
2018-06-22T01:25:33.100Z,14.60
2018-06-22T01:28:00.711Z,14.50
2018-06-22T01:30:28.269Z,14.60
2018-06-22T01:32:56.009Z,14.50
2018-06-22T01:35:23.615Z,14.50
2018-06-22T01:37:51.292Z,14.50
2018-06-22T01:40:18.918Z,14.50
2018-06-22T01:45:14.903Z,14.40
2018-06-22T01:47:42.544Z,14.40
2018-06-22T01:50:10.381Z,14.40
2018-06-22T01:52:37.966Z,14.40
2018-06-22T01:55:05.575Z,14.30
2018-06-22T01:57:33.194Z,14.30
2018-06-22T02:00:01.057Z,14.30
2018-06-22T02:02:44.244Z,14.30
2018-06-22T02:05:19.895Z,14.30
2018-06-22T02:07:47.467Z,14.30
2018-06-22T02:10:15.069Z,14.30
2018-06-22T02:12:43.052Z,14.30
2018-06-22T02:15:10.635Z,14.20
2018-06-22T02:17:38.223Z,14.20
2018-06-22T02:20:05.869Z,14.20
2018-06-22T02:22:33.453Z,14.20
2018-06-22T02:25:01.055Z,14.20
2018-06-22T02:27:28.688Z,14.20
2018-06-22T02:29:56.267Z,14.20
2018-06-22T02:32:23.891Z,14.20
2018-06-22T02:34:51.501Z,14.20
2018-06-22T02:37:19.120Z,14.10
2018-06-22T02:39:46.680Z,14.10
2018-06-22T02:42:14.405Z,14.10
2018-06-22T02:44:42.006Z,14.10
2018-06-22T02:47:09.559Z,14.10
2018-06-22T02:49:37.176Z,14.10
2018-06-22T02:52:04.788Z,14.10
2018-06-22T02:54:32.441Z,14.10
2018-06-22T02:57:00.111Z,14.00
2018-06-22T02:59:27.677Z,14.10
2018-06-22T03:01:55.661Z,14.10
2018-06-22T03:04:23.252Z,14.10
2018-06-22T03:06:50.806Z,14.10
2018-06-22T03:11:46.058Z,14.10
2018-06-22T03:14:13.668Z,14.10
2018-06-22T03:16:41.300Z,14.10
2018-06-22T03:19:08.891Z,14.10
2018-06-22T03:21:36.459Z,14.10
2018-06-22T03:24:04.047Z,14.10
2018-06-22T03:26:31.658Z,14.10
2018-06-22T03:28:59.266Z,14.10
2018-06-22T03:31:26.858Z,14.10
2018-06-22T03:33:54.622Z,14.10
2018-06-22T03:36:22.204Z,14.10
2018-06-22T03:38:49.904Z,14.10
2018-06-22T03:41:17.479Z,14.10
2018-06-22T03:43:45.110Z,14.10
2018-06-22T03:46:12.672Z,14.00
2018-06-22T03:48:40.244Z,14.00
2018-06-22T03:53:35.496Z,14.00
2018-06-22T03:56:03.123Z,14.00
2018-06-22T03:58:30.708Z,14.00
2018-06-22T04:00:58.295Z,14.00
2018-06-22T04:03:26.025Z,14.00
2018-06-22T04:05:53.614Z,13.90
2018-06-22T04:08:21.284Z,13.90
2018-06-22T04:10:48.995Z,13.90
2018-06-22T04:13:16.604Z,13.90
2018-06-22T04:15:44.248Z,13.90
2018-06-22T04:18:11.924Z,13.90
2018-06-22T04:20:39.553Z,13.90
2018-06-22T04:23:07.126Z,13.90
2018-06-22T04:25:34.672Z,13.90
2018-06-22T04:28:02.336Z,13.90
2018-06-22T04:30:29.950Z,13.90
2018-06-22T04:32:57.588Z,13.90
2018-06-22T04:35:25.336Z,13.90
2018-06-22T04:37:52.948Z,14.00
2018-06-22T04:40:20.512Z,14.00
2018-06-22T04:42:48.208Z,14.00
2018-06-22T04:47:43.561Z,14.00
2018-06-22T04:50:11.144Z,14.10
2018-06-22T04:52:38.859Z,14.10
2018-06-22T04:55:06.533Z,14.10
2018-06-22T05:00:01.856Z,14.20
2018-06-22T05:02:29.508Z,14.20
2018-06-22T05:04:57.113Z,14.20
2018-06-22T05:07:24.748Z,14.30
2018-06-22T05:09:52.330Z,14.30
2018-06-22T05:14:47.548Z,14.40
2018-06-22T05:17:15.170Z,14.50
2018-06-22T05:19:42.720Z,14.50
2018-06-22T05:22:10.360Z,14.60
2018-06-22T05:24:37.936Z,14.60
2018-06-22T05:27:05.580Z,14.70
2018-06-22T05:29:33.351Z,14.80
2018-06-22T05:32:00.939Z,14.80
2018-06-22T05:36:56.164Z,14.90
2018-06-22T05:39:23.801Z,15.00
2018-06-22T05:41:51.383Z,15.00
2018-06-22T05:44:18.976Z,15.10
2018-06-22T05:46:46.599Z,15.10
2018-06-22T05:49:14.236Z,15.10
2018-06-22T05:51:41.915Z,15.10
2018-06-22T05:54:09.495Z,15.20
2018-06-22T05:56:37.091Z,15.10
2018-06-22T05:59:04.739Z,15.20
2018-06-22T06:01:32.344Z,15.20
2018-06-22T06:06:27.669Z,15.30
2018-06-22T06:08:55.654Z,15.40
2018-06-22T06:11:23.240Z,15.40
2018-06-22T06:13:51.918Z,15.50
2018-06-22T06:16:19.515Z,15.60
2018-06-22T06:18:47.381Z,15.60
2018-06-22T06:21:14.967Z,15.60
2018-06-22T06:23:42.591Z,15.60
2018-06-22T06:26:10.205Z,15.70
2018-06-22T06:31:05.433Z,15.60
2018-06-22T06:33:33.021Z,15.60
2018-06-22T06:36:00.643Z,15.60
2018-06-22T06:38:28.232Z,15.70
2018-06-22T06:40:55.828Z,15.70
2018-06-22T06:43:23.751Z,15.70
2018-06-22T06:45:51.376Z,15.70
2018-06-22T06:50:46.622Z,15.70
2018-06-22T06:53:14.195Z,15.70
2018-06-22T06:55:41.803Z,15.80
2018-06-22T06:58:09.367Z,15.70
2018-06-22T07:00:36.960Z,15.80
2018-06-22T07:03:04.768Z,15.90
2018-06-22T07:05:32.372Z,15.90
2018-06-22T07:07:59.972Z,15.90
2018-06-22T07:10:27.586Z,16.00
2018-06-22T07:12:55.176Z,16.10
2018-06-22T07:15:23.143Z,16.20
2018-06-22T07:17:50.801Z,16.30
2018-06-22T07:20:18.364Z,16.30
2018-06-22T07:22:45.974Z,16.40
2018-06-22T07:27:41.215Z,16.60
2018-06-22T07:30:08.808Z,16.60
2018-06-22T07:32:36.381Z,16.60
2018-06-22T07:35:04.010Z,16.70
2018-06-22T07:37:31.560Z,16.70
2018-06-22T07:39:59.135Z,16.70
2018-06-22T07:42:26.696Z,16.70
2018-06-22T07:44:54.256Z,16.70
2018-06-22T07:47:21.844Z,16.70
2018-06-22T07:49:49.451Z,16.80
2018-06-22T07:52:17.038Z,16.80
2018-06-22T07:54:44.663Z,16.80
2018-06-22T07:57:12.250Z,16.80
2018-06-22T07:59:39.800Z,16.80
2018-06-22T08:02:07.476Z,16.80
2018-06-22T08:04:35.080Z,16.80
2018-06-22T08:09:30.535Z,16.90
2018-06-22T08:11:58.169Z,17.00
2018-06-22T08:14:25.785Z,17.00
2018-06-22T08:16:53.610Z,17.10
2018-06-22T08:19:21.200Z,17.10
2018-06-22T08:21:48.837Z,17.10
2018-06-22T08:26:44.177Z,17.10
2018-06-22T08:29:11.719Z,17.10
2018-06-22T08:31:39.295Z,17.10
2018-06-22T08:34:07.481Z,17.10
2018-06-22T08:36:35.075Z,17.10
2018-06-22T08:39:02.926Z,17.10
2018-06-22T08:41:30.537Z,17.10
2018-06-22T08:43:58.128Z,17.10
2018-06-22T08:46:25.737Z,17.20
2018-06-22T08:48:53.498Z,17.30
2018-06-22T08:51:21.032Z,17.40
2018-06-22T08:53:48.643Z,17.50
2018-06-22T08:56:16.198Z,17.60
2018-06-22T08:58:43.759Z,17.70
2018-06-22T09:01:11.368Z,17.80
2018-06-22T09:03:38.985Z,17.90
2018-06-22T09:06:06.576Z,17.80
2018-06-22T09:08:35.211Z,17.90
2018-06-22T09:11:02.825Z,17.90
2018-06-22T09:13:30.416Z,18.00
2018-06-22T09:15:57.972Z,18.10
2018-06-22T09:18:25.521Z,18.20
2018-06-22T09:20:53.075Z,18.30
2018-06-22T09:23:20.646Z,18.30
2018-06-22T09:25:48.288Z,18.30
2018-06-22T09:28:15.867Z,18.30
2018-06-22T09:30:43.439Z,18.30
2018-06-22T09:33:11.055Z,18.20
2018-06-22T09:35:38.619Z,18.20
2018-06-22T09:38:06.275Z,18.10
2018-06-22T09:40:34.040Z,18.10
2018-06-22T09:43:01.655Z,18.20
2018-06-22T09:45:29.189Z,18.30
2018-06-22T09:47:57.012Z,18.50
2018-06-22T09:50:24.590Z,18.70
2018-06-22T09:52:52.300Z,18.90
2018-06-22T09:55:19.883Z,19.10
2018-06-22T09:57:47.443Z,19.40
2018-06-22T10:00:17.278Z,19.70
2018-06-22T10:02:45.047Z,20.00
2018-06-22T10:05:12.618Z,20.20
2018-06-22T10:07:40.220Z,20.30
2018-06-22T10:10:07.769Z,20.40
2018-06-22T10:12:35.397Z,20.30
2018-06-22T10:15:02.987Z,20.30
2018-06-22T10:17:30.571Z,20.20
2018-06-22T10:19:58.136Z,20.10
2018-06-22T10:22:25.691Z,20.00
2018-06-22T10:24:53.279Z,20.00
2018-06-22T10:27:20.846Z,20.00
2018-06-22T10:29:48.436Z,20.20
2018-06-22T10:32:16.048Z,20.30
2018-06-22T10:34:43.891Z,20.60
2018-06-22T10:37:11.489Z,21.00
2018-06-22T10:42:06.731Z,21.50
2018-06-22T10:44:34.357Z,21.70
2018-06-22T10:47:01.958Z,22.00
2018-06-22T10:49:29.599Z,22.20
2018-06-22T10:51:57.284Z,22.30
2018-06-22T10:54:24.895Z,22.40
2018-06-22T10:56:52.490Z,22.40
2018-06-22T10:59:20.076Z,22.30
2018-06-22T11:01:47.640Z,22.10
2018-06-22T11:04:15.286Z,22.00
2018-06-22T11:06:42.884Z,21.80
2018-06-22T11:09:11.537Z,21.70
2018-06-22T11:11:39.259Z,21.60
2018-06-22T11:14:06.895Z,21.60
2018-06-22T11:16:34.504Z,21.60
2018-06-22T11:19:02.816Z,21.60
2018-06-22T11:21:30.586Z,21.60
2018-06-22T11:23:58.205Z,21.50
2018-06-22T11:26:25.791Z,21.30
2018-06-22T11:28:53.408Z,21.20
2018-06-22T11:31:20.968Z,21.00
2018-06-22T11:33:48.531Z,20.80
2018-06-22T11:36:16.206Z,20.60
2018-06-22T11:38:43.741Z,20.50
2018-06-22T11:41:11.337Z,20.40
2018-06-22T11:43:39.329Z,20.30
2018-06-22T11:46:06.972Z,20.20
2018-06-22T11:48:34.594Z,20.20
2018-06-22T11:51:02.202Z,20.20
2018-06-22T11:53:29.915Z,20.20
2018-06-22T11:55:57.560Z,20.20
2018-06-22T11:58:25.138Z,20.30
2018-06-22T12:00:52.715Z,20.30
2018-06-22T12:03:20.272Z,20.50
2018-06-22T12:05:47.947Z,20.60
2018-06-22T12:08:15.537Z,20.80
2018-06-22T12:10:43.136Z,21.00
2018-06-22T12:15:38.387Z,21.30
2018-06-22T12:18:06.052Z,21.40
2018-06-22T12:20:33.619Z,21.40
2018-06-22T12:23:01.211Z,21.50
2018-06-22T12:25:29.304Z,21.60
2018-06-22T12:27:57.106Z,21.70
2018-06-22T12:30:24.734Z,21.80
2018-06-22T12:32:52.579Z,21.90
2018-06-22T12:35:20.200Z,22.10
2018-06-22T12:37:47.783Z,22.10
2018-06-22T12:40:15.381Z,22.20
2018-06-22T12:42:42.949Z,22.20
2018-06-22T12:45:10.588Z,22.20
2018-06-22T12:47:38.211Z,22.10
2018-06-22T12:50:06.278Z,22.00
2018-06-22T12:52:33.900Z,22.00
2018-06-22T12:55:01.484Z,21.90
2018-06-22T12:57:29.131Z,21.90
2018-06-22T12:59:56.748Z,21.90
2018-06-22T13:02:24.352Z,21.90
2018-06-22T13:04:51.923Z,22.00
2018-06-22T13:07:19.516Z,22.10
2018-06-22T13:09:47.169Z,22.10
2018-06-22T13:12:14.823Z,22.10
2018-06-22T13:14:42.490Z,22.10
2018-06-22T13:17:10.119Z,22.00
2018-06-22T13:19:37.720Z,22.00
2018-06-22T13:22:05.447Z,22.00
2018-06-22T13:24:33.093Z,22.00
2018-06-22T13:27:00.710Z,22.00
2018-06-22T13:29:28.371Z,22.00
2018-06-22T13:31:55.985Z,22.00
2018-06-22T13:34:23.535Z,21.90
2018-06-22T13:36:51.159Z,21.80
2018-06-22T13:39:19.064Z,21.70
2018-06-22T13:41:47.187Z,21.50
2018-06-22T13:44:14.748Z,21.30
2018-06-22T13:46:43.244Z,21.00
2018-06-22T13:49:11.271Z,20.80
2018-06-22T13:51:38.952Z,20.50
2018-06-22T13:54:07.264Z,20.30
2018-06-22T13:56:35.361Z,20.10
2018-06-22T13:59:03.061Z,20.00
2018-06-22T14:04:05.245Z,19.80
2018-06-22T14:06:38.646Z,19.70
2018-06-22T14:09:11.831Z,19.70
2018-06-22T14:11:39.873Z,19.80
2018-06-22T14:14:07.492Z,19.80
2018-06-22T14:16:35.412Z,19.80
2018-06-22T14:19:05.132Z,19.80
2018-06-22T14:21:33.100Z,19.90
2018-06-22T14:24:00.761Z,19.90
2018-06-22T14:26:28.385Z,19.90
2018-06-22T14:28:56.067Z,20.00
2018-06-22T14:31:23.692Z,20.00
2018-06-22T14:33:51.280Z,20.00
2018-06-22T14:36:18.940Z,20.00
2018-06-22T14:38:46.531Z,20.10
2018-06-22T14:41:14.119Z,20.10
2018-06-22T14:43:41.687Z,20.10
2018-06-22T14:46:09.304Z,20.20
2018-06-22T14:51:05.090Z,20.40
2018-06-22T14:53:38.571Z,20.50
2018-06-22T14:56:11.952Z,20.60
2018-06-22T14:58:45.319Z,20.80
2018-06-22T15:01:18.638Z,20.80
2018-06-22T15:03:52.096Z,20.90
2018-06-22T15:06:25.642Z,21.00
2018-06-22T15:08:53.267Z,21.00
2018-06-22T15:11:20.851Z,21.10
2018-06-22T15:13:48.919Z,21.10
2018-06-22T15:18:44.853Z,21.00
2018-06-22T15:21:12.422Z,21.00
2018-06-22T15:23:40.058Z,20.90
2018-06-22T15:26:07.668Z,20.80
2018-06-22T15:28:35.303Z,20.60
2018-06-22T15:31:02.918Z,20.40
2018-06-22T15:33:36.471Z,20.20
2018-06-22T15:36:09.896Z,20.00
2018-06-22T15:38:43.313Z,19.90
2018-06-22T15:41:16.747Z,19.80
2018-06-22T15:43:50.163Z,19.60
2018-06-22T15:46:23.580Z,19.50
2018-06-22T15:48:57.183Z,19.30
2018-06-22T15:51:31.068Z,19.20
2018-06-22T15:54:04.623Z,19.10
2018-06-22T15:56:32.350Z,19.00
2018-06-22T15:59:00.047Z,18.90
2018-06-22T16:01:28.008Z,18.80
2018-06-22T16:03:56.927Z,18.80
2018-06-22T16:06:25.501Z,18.80
2018-06-22T16:08:54.119Z,18.80
2018-06-22T16:11:25.764Z,18.80
2018-06-22T16:14:00.206Z,18.80
2018-06-22T16:17:37.501Z,18.80
2018-06-22T16:22:44.339Z,18.90
2018-06-22T16:25:17.759Z,18.90
2018-06-22T16:27:48.268Z,18.90
2018-06-22T16:30:15.844Z,18.80
2018-06-22T16:32:43.415Z,18.80
2018-06-22T16:35:10.993Z,18.70
2018-06-22T16:37:38.547Z,18.60
2018-06-22T16:40:06.153Z,18.50
2018-06-22T16:42:33.756Z,18.40
2018-06-22T16:45:01.333Z,18.30
2018-06-22T16:47:28.935Z,18.20
2018-06-22T16:49:56.509Z,18.10
2018-06-22T16:52:24.567Z,17.90
2018-06-22T16:54:52.168Z,17.80
2018-06-22T16:57:19.796Z,17.60
2018-06-22T16:59:47.398Z,17.50
2018-06-22T17:02:14.992Z,17.40
2018-06-22T17:04:42.602Z,17.30
2018-06-22T17:07:15.927Z,17.20
2018-06-22T17:09:49.501Z,17.20
2018-06-22T17:12:22.855Z,17.10
2018-06-22T17:14:56.273Z,17.10
2018-06-22T17:17:29.601Z,17.00
2018-06-22T17:19:57.163Z,17.00
2018-06-22T17:22:24.748Z,16.90
2018-06-22T17:24:52.349Z,16.80
2018-06-22T17:27:20.032Z,16.70
2018-06-22T17:29:47.656Z,16.70
2018-06-22T17:32:15.323Z,16.60
2018-06-22T17:34:42.960Z,16.50
2018-06-22T17:37:10.617Z,16.40
2018-06-22T17:39:38.224Z,16.30
2018-06-22T17:42:05.850Z,16.20
2018-06-22T17:44:33.465Z,16.20
2018-06-22T17:47:01.103Z,16.10
2018-06-22T17:49:28.823Z,16.00
2018-06-22T17:51:56.456Z,16.00
2018-06-22T17:54:24.888Z,15.90
2018-06-22T17:59:26.009Z,15.80
2018-06-22T18:01:59.690Z,15.80
2018-06-22T18:04:32.957Z,15.70
2018-06-22T18:09:39.988Z,15.70
2018-06-22T18:12:13.440Z,15.60
2018-06-22T18:14:41.307Z,15.60
2018-06-22T18:17:09.031Z,15.60
2018-06-22T18:19:36.700Z,15.60
2018-06-22T18:22:04.294Z,15.50
2018-06-22T18:24:32.673Z,15.50
2018-06-22T18:27:00.238Z,15.50
2018-06-22T18:29:27.824Z,15.40
2018-06-22T18:31:55.417Z,15.40
2018-06-22T18:34:23.023Z,15.40
2018-06-22T18:36:50.723Z,15.40
2018-06-22T18:39:18.359Z,15.40
2018-06-22T18:41:46.024Z,15.30
2018-06-22T18:44:16.605Z,15.30
2018-06-22T18:46:44.650Z,15.20
2018-06-22T18:49:12.312Z,15.10
2018-06-22T18:51:40.016Z,15.00
2018-06-22T18:54:13.527Z,15.00
2018-06-22T18:56:47.087Z,14.90
2018-06-22T18:59:20.388Z,14.80
2018-06-22T19:01:53.909Z,14.80
2018-06-22T19:04:21.517Z,14.70
2018-06-22T19:06:49.192Z,14.60
2018-06-22T19:09:16.816Z,14.50
2018-06-22T19:11:44.466Z,14.50
2018-06-22T19:14:12.096Z,14.50
2018-06-22T19:16:40.296Z,14.40
2018-06-22T19:19:08.212Z,14.40
2018-06-22T19:24:03.530Z,14.30
2018-06-22T19:26:31.430Z,14.30
2018-06-22T19:28:59.092Z,14.20
2018-06-22T19:31:26.728Z,14.20
2018-06-22T19:33:54.327Z,14.10
2018-06-22T19:36:21.925Z,14.10
2018-06-22T19:38:49.547Z,14.10
2018-06-22T19:43:50.500Z,14.00
2018-06-22T19:46:23.869Z,14.00
2018-06-22T19:48:57.287Z,14.00
2018-06-22T19:51:30.800Z,14.00
2018-06-22T19:54:08.648Z,14.00
2018-06-22T19:56:36.354Z,14.00
2018-06-22T19:59:04.084Z,14.00
2018-06-22T20:01:31.715Z,14.00
2018-06-22T20:03:59.276Z,14.00
2018-06-22T20:06:27.156Z,14.00
2018-06-22T20:08:54.773Z,14.00
2018-06-22T20:11:22.603Z,14.00
2018-06-22T20:13:50.198Z,14.10
2018-06-22T20:16:17.847Z,14.00
2018-06-22T20:18:45.431Z,14.10
2018-06-22T20:21:13.046Z,14.10
2018-06-22T20:26:08.399Z,14.20
2018-06-22T20:28:36.008Z,14.10
2018-06-22T20:31:03.693Z,14.20
2018-06-22T20:33:31.339Z,14.20
2018-06-22T20:36:04.695Z,14.20
2018-06-22T20:38:38.290Z,14.30
2018-06-22T20:41:11.754Z,14.30
2018-06-22T20:43:45.200Z,14.30
2018-06-22T20:46:17.496Z,14.30
2018-06-22T20:48:51.269Z,14.40
2018-06-22T20:51:19.334Z,14.40
2018-06-22T20:53:48.890Z,14.40
2018-06-22T20:56:16.632Z,14.50
2018-06-22T20:58:44.224Z,14.50
2018-06-22T21:01:12.179Z,14.50
2018-06-22T21:03:39.892Z,14.50
2018-06-22T21:06:07.860Z,14.50
2018-06-22T21:08:35.510Z,14.50
2018-06-22T21:11:03.174Z,14.50
2018-06-22T21:13:30.755Z,14.50
2018-06-22T21:15:58.381Z,14.50
2018-06-22T21:18:25.995Z,14.50
2018-06-22T21:20:59.259Z,14.50
2018-06-22T21:23:27.257Z,14.40
2018-06-22T21:25:54.897Z,14.40
2018-06-22T21:28:28.244Z,14.40
2018-06-22T21:31:01.673Z,14.40
2018-06-22T21:33:35.099Z,14.40
2018-06-22T21:36:08.394Z,14.30
2018-06-22T21:38:41.887Z,14.30
2018-06-22T21:41:09.499Z,14.30
2018-06-22T21:46:05.171Z,14.20
2018-06-22T21:48:32.788Z,14.20
2018-06-22T21:51:00.501Z,14.10
2018-06-22T21:53:28.424Z,14.10
2018-06-22T21:55:56.055Z,14.10
2018-06-22T21:58:23.701Z,14.10
2018-06-22T22:00:51.368Z,14.10
2018-06-22T22:03:18.940Z,14.10
2018-06-22T22:05:46.550Z,14.00
2018-06-22T22:11:11.528Z,14.00
2018-06-22T22:13:39.877Z,14.00
2018-06-22T22:23:52.583Z,14.00
2018-06-22T22:26:20.228Z,13.90
2018-06-22T22:28:47.879Z,13.60
2018-06-22T22:31:15.493Z,13.60
2018-06-22T22:33:43.164Z,13.50
2018-06-22T22:36:10.879Z,13.50
2018-06-22T22:38:38.478Z,13.60
2018-06-22T22:41:06.081Z,13.60
2018-06-22T22:43:33.768Z,13.60
2018-06-22T22:50:57.265Z,13.70
2018-06-22T22:53:24.841Z,13.70
2018-06-22T22:55:52.473Z,13.70
2018-06-22T22:58:20.040Z,13.70
2018-06-22T23:00:47.704Z,13.70
2018-06-22T23:03:15.375Z,13.80
2018-06-22T23:05:44.039Z,13.80
2018-06-22T23:08:11.620Z,13.80
2018-06-22T23:10:39.231Z,13.80
2018-06-22T23:13:06.894Z,13.80
2018-06-22T23:15:34.514Z,13.90
2018-06-22T23:18:02.128Z,13.90
2018-06-22T23:20:29.747Z,13.90
2018-06-22T23:23:15.021Z,13.90
2018-06-22T23:25:42.630Z,13.90
2018-06-22T23:28:10.264Z,14.00
2018-06-22T23:30:37.846Z,14.00
2018-06-22T23:33:05.753Z,14.00
2018-06-22T23:35:33.376Z,14.00
2018-06-22T23:38:00.983Z,14.10
2018-06-22T23:40:28.624Z,14.10
2018-06-22T23:42:56.232Z,14.10
2018-06-22T23:45:23.898Z,14.10
2018-06-22T23:47:51.628Z,14.20
2018-06-22T23:50:19.336Z,14.20
2018-06-22T23:55:14.637Z,14.20
2018-06-22T23:57:42.298Z,14.30
